Historyczne dane pomiarowe

Dodano dane terminowe – wersja testowa.

Dane z okresu 1951-2019

Wersja bazy: 1.34 [2019-03-16, lista zmian], aktualizacja planowana na 2019-04-15

Dane meteo z obszaru Polski uzyskane na podstawie danych udostępnionych przez Instytut Meteorologii i Gospodarki Wodnej – Państwowy Instytut Badawczy.

 

Wybierz Datę:    

       

TemperaturaWilgotnośćWiatrCiśnienieOpadyŚniegCzas trwania zjawisk
 Stacja t tx tn tng RH VA  wxwx mslp ppp RRR   cm mm wxwxwxwxwxwxwx
1961-08-14 11.8 18.5 4.8 2.8-- 5.0 1.7---- 0.0------------
1961-08-13 11.8 14.2 9.5 12.9-- 5.7 2.0---- 5.3------------
1961-08-12 16.3 22.3 13.5 11.6-- 8.0 2.0---- 16.6------------
1961-08-11 20.0 28.6 16.8 15.7-- 4.0 3.0---- 1.4------------
1961-08-10 23.6 30.9 16.9 14.4-- 1.7 1.7---- 0.0------------
1961-08-09 22.2 27.6 15.8 13.5-- 6.7 0.7---- 0.9------------
1961-08-08 18.7 23.4 14.3 14.5-- 7.0 2.7---- 0.1------------
1961-08-07 20.5 26.8 12.8 9.7-- 6.7 1.7---- 9.9------------
1961-08-06 23.8 29.2 14.1 10.3-- 1.3 5.0---- 0.0------------
1961-08-05 18.2 24.2 14.5 14.1-- 2.7 3.3---- 0.0------------
1961-08-04 16.1 20.9 6.3 3.5-- 6.0 2.3---- 0.0------------
1961-08-03 15.7 20.4 11.4 10.2-- 5.0 1.3---- 0.1------------
1961-08-02 18.4 25.4 8.6 6.3-- 4.0 3.7---- 0.0------------
1961-08-01 14.1 21.0 10.1 8.6-- 3.7 3.7---- 0.0------------
1961-07-31 12.5 13.8 11.0 10.9-- 8.0 5.0---- 20.8------------
1961-07-30 11.7 14.5 9.7 9.3-- 8.0 3.3---- 35.4------------
1961-07-29 13.2 18.3 10.4 11.7-- 7.3 2.3---- 0.2------------
1961-07-28 18.2 22.9 14.3 13.0-- 7.3 3.7---- 12.3------------
1961-07-27 19.0 25.2 13.4 10.9-- 6.0 4.0---- 1.6------------
1961-07-26 17.4 22.4 8.7 6.3-- 3.7 3.7---- 0.0------------
1961-07-25 13.3 17.9 10.8 10.2-- 7.7 1.7---- 0.0------------
1961-07-24 13.4 18.7 10.2 5.6-- 7.0 3.3---- 0.0------------
1961-07-23 14.4 19.8 11.4 8.2-- 5.3 2.7---- 0.0------------
1961-07-22 13.4 16.9 11.7 9.9-- 8.0 3.0---- 17.9------------
1961-07-21 14.6 19.0 10.2 7.3-- 6.3 3.0---- 10.6------------
1961-07-20 14.5 20.4 8.7 6.3-- 5.3 2.0---- 0.2------------
1961-07-19 14.7 19.7 10.4 8.0-- 7.7 2.3---- 2.4------------
1961-07-18 14.7 19.1 11.7 9.5-- 6.3 4.7---- 0.0------------
1961-07-17 14.9 19.9 11.7 8.7-- 4.7 3.3---- 1.0------------
1961-07-16 15.9 22.0 13.1 11.6-- 6.3 5.0---- 0.0------------
1961-07-15 18.3 23.5 11.4 8.7-- 6.0 4.0---- 37.9------------
1961-07-14 15.2 19.5 12.6 11.3-- 5.0 5.0---- 0.0------------
1961-07-13 19.2 27.4 13.1 10.2-- 4.0 5.7---- 45.6------------
1961-07-12 22.1 28.0 13.2 9.4-- 1.7 3.0---- 0.0------------
1961-07-11 15.4 21.9 6.8 3.9-- 3.3 2.3---- 0.0------------
1961-07-10 13.3 18.2 9.7 7.2-- 3.3 3.7---- 3.5------------
1961-07-09 13.3 19.4 8.6 5.6-- 5.7 4.3---- 8.1------------
1961-07-08 14.4 21.0 9.3 3.8-- 3.0 1.3---- 0.0------------
1961-07-07 12.5 17.4 9.7 9.4-- 4.3 2.7---- 0.3------------
1961-07-06 12.6 16.6 7.0 3.9-- 6.3 4.3---- 0.4------------
1961-07-05 13.5 16.9 11.2 10.9-- 4.0 3.7---- 0.0------------
1961-07-04 20.3 28.5 16.3 13.5-- 5.3 3.3---- 13.8------------
1961-07-03 23.8 30.9 12.3 9.6-- 1.3 2.0---- 0.0------------
1961-07-02 21.3 29.4 10.3 7.7-- 1.0 0.7---- 0.0------------
1961-07-01 20.0 27.4 9.9 7.5-- 3.7 1.3---- 0.0------------
1961-06-30 18.0 25.0 7.5 5.3-- 2.7 1.3---- 0.0------------
1961-06-29 15.1 21.5 8.2 4.5-- 1.7 2.3---- 0.0------------
1961-06-28 13.2 20.1 10.8 13.3-- 4.0 7.0---- 1.0------------
1961-06-27 22.8 31.3 14.8 11.0-- 5.3 4.3---- 50.8------------
1961-06-26 21.8 29.3 14.9 11.4-- 6.0 3.3---- 0.0------------
1961-06-25 22.9 29.9 10.4 6.9-- 0.3 3.7---- 0.0------------
1961-06-24 18.3 25.0 9.5 6.8-- 5.0 4.0---- 0.0------------
1961-06-23 18.1 23.9 14.4 13.4-- 3.7 4.7---- 0.0------------
1961-06-22 19.2 26.2 8.1 3.7-- 2.7 2.7---- 8.3------------
1961-06-21 18.5 24.4 3.7 0.5-- 2.0 3.3---- 0.0------------
1961-06-20 14.2 20.3 10.8 3.0-- 1.7 2.3---- 0.0------------
1961-06-19 18.4 24.9 15.0 12.7-- 4.3 2.7---- 0.0------------
1961-06-18 20.5 26.4 8.4 5.5-- 2.7 3.7---- 0.0------------
1961-06-17 15.7 22.7 6.1 2.7-- 2.0 2.7---- 0.0------------
1961-06-16 12.8 19.0 5.6 1.5-- 2.0 2.3---- 0.0------------
468.8 ms

 

Źródłem pochodzenia danych jest Instytut Meteorologii i Gospodarki Wodnej – Państwowy Instytut Badawczy. Dane Instytutu Meteorologii i Gospodarki Wodnej – Państwowego Instytutu Badawczego zostały przetworzone.

Dane źródłowe można odnaleźć na stronie https://dane.imgw.pl